createdAt,value
2023-04-02T00:01:02.638Z,99090.41
2023-04-02T00:04:03.538Z,99080.09
2023-04-02T00:06:32.982Z,99076.81
2023-04-02T00:09:33.589Z,99080.50
2023-04-02T00:12:17.571Z,99078.56
2023-04-02T00:14:53.746Z,99076.66
2023-04-02T00:17:24.917Z,99077.47
2023-04-02T00:19:59.101Z,99080.72
2023-04-02T00:22:33.864Z,99072.38
2023-04-02T00:25:10.486Z,99065.50
2023-04-02T00:27:38.217Z,99061.03
2023-04-02T00:30:06.472Z,99068.44
2023-04-02T00:32:36.440Z,99069.06
2023-04-02T00:35:05.977Z,99063.16
2023-04-02T00:37:39.108Z,99064.84
2023-04-02T00:40:16.865Z,99071.94
2023-04-02T00:42:46.528Z,99071.72
2023-04-02T00:45:21.698Z,99077.66
2023-04-02T00:47:49.608Z,99077.69
2023-04-02T00:50:26.462Z,99087.16
2023-04-02T00:52:55.702Z,99083.62
2023-04-02T00:55:28.589Z,99089.34
2023-04-02T00:57:57.430Z,99087.72
2023-04-02T01:00:36.681Z,99090.44
2023-04-02T01:03:19.583Z,99089.34
2023-04-02T01:06:11.005Z,99091.22
2023-04-02T01:08:57.774Z,99095.28
2023-04-02T01:12:05.475Z,99087.63
2023-04-02T01:14:47.928Z,99084.34
2023-04-02T01:17:30.626Z,99091.38
2023-04-02T01:20:09.507Z,99095.69
2023-04-02T01:22:49.592Z,99093.53
2023-04-02T01:25:28.451Z,99088.59
2023-04-02T01:28:08.386Z,99085.34
2023-04-02T01:30:37.749Z,99085.41
2023-04-02T01:33:10.636Z,99077.84
2023-04-02T01:35:42.547Z,99084.38
2023-04-02T01:38:25.866Z,99089.84
2023-04-02T01:41:14.990Z,99099.59
2023-04-02T01:43:57.282Z,99100.13
2023-04-02T01:46:33.508Z,99107.16
2023-04-02T01:49:12.432Z,99107.09
2023-04-02T01:51:43.926Z,99110.88
2023-04-02T01:54:12.306Z,99116.81
2023-04-02T01:56:42.432Z,99113.00
2023-04-02T01:59:12.189Z,99104.28
2023-04-02T02:01:49.460Z,99112.13
2023-04-02T02:04:20.507Z,99110.22
2023-04-02T02:06:49.716Z,99115.09
2023-04-02T02:09:24.094Z,99120.50
2023-04-02T02:11:52.596Z,99117.81
2023-04-02T02:14:23.743Z,99119.69
2023-04-02T02:16:53.507Z,99112.38
2023-04-02T02:19:33.310Z,99114.00
2023-04-02T02:22:35.072Z,99117.78
2023-04-02T02:25:18.773Z,99124.25
2023-04-02T02:27:49.004Z,99122.38
2023-04-02T02:30:28.428Z,99120.50
2023-04-02T02:33:18.095Z,99114.28
2023-04-02T02:36:15.147Z,99114.84
2023-04-02T02:38:58.915Z,99116.72
2023-04-02T02:41:44.814Z,99114.03
2023-04-02T02:44:18.323Z,99105.34
2023-04-02T02:47:19.969Z,99119.72
2023-04-02T02:49:52.460Z,99122.47
2023-04-02T02:52:24.940Z,99118.44
2023-04-02T02:55:06.397Z,99115.97
2023-04-02T02:57:39.339Z,99122.13
2023-04-02T03:00:13.069Z,99113.19
2023-04-02T03:02:43.300Z,99113.12
2023-04-02T03:05:17.273Z,99118.22
2023-04-02T03:07:45.197Z,99116.31
2023-04-02T03:10:18.438Z,99116.53
2023-04-02T03:13:01.126Z,99109.50
2023-04-02T03:15:36.530Z,99112.19
2023-04-02T03:18:12.197Z,99114.66
2023-04-02T03:20:49.845Z,99110.31
2023-04-02T03:23:36.048Z,99106.78
2023-04-02T03:26:13.140Z,99106.81
2023-04-02T03:28:47.619Z,99106.31
2023-04-02T03:31:29.965Z,99105.34
2023-04-02T03:34:09.021Z,99102.66
2023-04-02T03:36:46.640Z,99108.94
2023-04-02T03:39:39.132Z,99110.03
2023-04-02T03:42:14.841Z,99103.00
2023-04-02T03:44:48.384Z,99114.69
2023-04-02T03:47:25.439Z,99118.19
2023-04-02T03:50:09.335Z,99121.19
2023-04-02T03:52:38.910Z,99120.94
2023-04-02T03:55:34.896Z,99121.22
2023-04-02T03:58:18.996Z,99124.50
2023-04-02T04:00:49.504Z,99122.88
2023-04-02T04:03:31.554Z,99122.88
2023-04-02T04:06:11.394Z,99122.06
2023-04-02T04:08:47.599Z,99124.78
2023-04-02T04:11:18.605Z,99118.28
2023-04-02T04:14:25.588Z,99119.66
2023-04-02T04:17:24.703Z,99125.06
2023-04-02T04:20:08.032Z,99125.06
2023-04-02T04:22:35.947Z,99128.88
2023-04-02T04:25:07.465Z,99132.66
2023-04-02T04:27:52.842Z,99136.97
2023-04-02T04:30:34.815Z,99129.69
2023-04-02T04:33:10.914Z,99141.59
2023-04-02T04:35:45.512Z,99138.09
2023-04-02T04:38:21.883Z,99140.81
2023-04-02T04:40:54.983Z,99149.78
2023-04-02T04:43:34.668Z,99156.56
2023-04-02T04:46:11.074Z,99161.47
2023-04-02T04:48:53.855Z,99163.09
2023-04-02T04:51:30.132Z,99166.88
2023-04-02T04:54:01.674Z,99160.94
2023-04-02T04:56:33.544Z,99163.37
2023-04-02T04:59:30.465Z,99169.06
2023-04-02T05:02:12.554Z,99176.63
2023-04-02T05:04:50.200Z,99175.53
2023-04-02T05:07:29.659Z,99170.69
2023-04-02T05:10:05.481Z,99168.25
2023-04-02T05:12:55.480Z,99167.50
2023-04-02T05:15:44.639Z,99174.28
2023-04-02T05:18:18.156Z,99173.25
2023-04-02T05:21:01.360Z,99178.16
2023-04-02T05:23:38.512Z,99183.88
2023-04-02T05:26:22.773Z,99184.44
2023-04-02T05:29:03.273Z,99181.72
2023-04-02T05:31:49.914Z,99187.13
2023-04-02T05:34:28.861Z,99183.84
2023-04-02T05:36:57.030Z,99196.31
2023-04-02T05:39:28.061Z,99178.91
2023-04-02T05:42:08.501Z,99188.94
2023-04-02T05:44:41.840Z,99190.03
2023-04-02T05:47:16.005Z,99202.78
2023-04-02T05:49:50.585Z,99194.03
2023-04-02T05:52:23.603Z,99210.03
2023-04-02T05:55:01.228Z,99203.19
2023-04-02T05:57:46.836Z,99209.19
2023-04-02T06:00:26.354Z,99220.91
2023-04-02T06:03:07.390Z,99210.03
2023-04-02T06:05:40.790Z,99214.06
2023-04-02T06:08:37.732Z,99220.03
2023-04-02T06:11:21.400Z,99210.22
2023-04-02T06:13:49.130Z,99217.28
2023-04-02T06:16:17.620Z,99222.47
2023-04-02T06:18:46.168Z,99223.81
2023-04-02T06:21:18.919Z,99222.19
2023-04-02T06:24:07.982Z,99228.72
2023-04-02T06:26:44.565Z,99227.62
2023-04-02T06:29:44.241Z,99235.22
2023-04-02T06:32:14.798Z,99238.19
2023-04-02T06:34:43.751Z,99230.25
2023-04-02T06:37:32.862Z,99235.66
2023-04-02T06:40:04.259Z,99228.72
2023-04-02T06:42:38.760Z,99238.03
2023-04-02T06:45:07.729Z,99220.44
2023-04-02T06:47:35.580Z,99223.78
2023-04-02T06:50:13.865Z,99236.88
2023-04-02T06:52:48.667Z,99220.56
2023-04-02T06:55:28.576Z,99230.03
2023-04-02T06:57:56.183Z,99232.22
2023-04-02T07:00:31.460Z,99231.06
2023-04-02T07:03:02.905Z,99226.41
2023-04-02T07:05:33.009Z,99233.03
2023-04-02T07:08:01.073Z,99237.50
2023-04-02T07:10:28.695Z,99235.94
2023-04-02T07:12:56.299Z,99228.28
2023-04-02T07:15:25.510Z,99222.53
2023-04-02T07:17:54.792Z,99241.09
2023-04-02T07:20:25.943Z,99226.19
2023-04-02T07:22:54.279Z,99240.94
2023-04-02T07:25:24.527Z,99231.16
2023-04-02T07:27:53.558Z,99236.66
2023-04-02T07:30:23.302Z,99237.38
2023-04-02T07:32:51.019Z,99248.31
2023-04-02T07:35:18.752Z,99246.13
2023-04-02T07:37:46.624Z,99250.31
2023-04-02T07:40:22.950Z,99250.62
2023-04-02T07:42:51.264Z,99252.41
2023-04-02T07:45:21.407Z,99249.81
2023-04-02T07:47:49.079Z,99259.97
2023-04-02T07:50:16.866Z,99259.22
2023-04-02T07:52:45.410Z,99265.91
2023-04-02T07:55:15.660Z,99259.47
2023-04-02T07:57:51.928Z,99271.97
2023-04-02T08:00:22.683Z,99274.97
2023-04-02T08:02:50.829Z,99274.72
2023-04-02T08:05:20.948Z,99274.97
2023-04-02T08:07:56.769Z,99277.37
2023-04-02T08:10:25.620Z,99276.66
2023-04-02T08:12:55.430Z,99284.47
2023-04-02T08:15:23.145Z,99284.28
2023-04-02T08:17:53.519Z,99287.31
2023-04-02T08:20:23.207Z,99291.53
2023-04-02T08:22:51.437Z,99300.13
2023-04-02T08:25:19.045Z,99298.50
2023-04-02T08:27:49.929Z,99301.38
2023-04-02T08:30:19.005Z,99312.16
2023-04-02T08:32:47.108Z,99305.84
2023-04-02T08:35:17.093Z,99305.72
2023-04-02T08:37:45.056Z,99305.69
2023-04-02T08:40:43.765Z,99307.44
2023-04-02T08:43:23.781Z,99314.41
2023-04-02T08:46:00.590Z,99310.69
2023-04-02T08:48:33.407Z,99315.41
2023-04-02T08:51:07.641Z,99310.09
2023-04-02T08:53:39.339Z,99316.16
2023-04-02T08:56:28.694Z,99316.59
2023-04-02T08:59:02.808Z,99321.22
2023-04-02T09:01:42.690Z,99326.97
2023-04-02T09:04:19.892Z,99326.03
2023-04-02T09:06:49.455Z,99327.88
2023-04-02T09:09:19.247Z,99331.06
2023-04-02T09:11:54.207Z,99336.97
2023-04-02T09:14:56.713Z,99334.06
2023-04-02T09:17:26.435Z,99334.09
2023-04-02T09:20:05.588Z,99325.38
2023-04-02T09:22:35.980Z,99335.03
2023-04-02T09:25:06.013Z,99330.81
2023-04-02T09:27:36.366Z,99330.00
2023-04-02T09:30:39.412Z,99326.97
2023-04-02T09:33:09.271Z,99339.41
2023-04-02T09:35:58.598Z,99338.59
2023-04-02T09:38:31.590Z,99343.88
2023-04-02T09:41:02.198Z,99337.44
2023-04-02T09:43:39.667Z,99348.13
2023-04-02T09:46:25.895Z,99339.22
2023-04-02T09:49:02.387Z,99347.97
2023-04-02T09:51:34.744Z,99350.81
2023-04-02T09:54:05.925Z,99360.91
2023-04-02T09:56:38.444Z,99350.63
2023-04-02T09:59:08.809Z,99352.00
2023-04-02T10:01:56.811Z,99359.72
2023-04-02T10:04:47.280Z,99356.97
2023-04-02T10:07:43.661Z,99358.28
2023-04-02T10:10:37.667Z,99372.38
2023-04-02T10:13:10.578Z,99362.53
2023-04-02T10:15:57.066Z,99361.59
2023-04-02T10:18:31.366Z,99361.97
2023-04-02T10:21:03.486Z,99357.47
2023-04-02T10:23:32.724Z,99355.56
2023-04-02T10:26:42.316Z,99356.72
2023-04-02T10:29:21.247Z,99362.19
2023-04-02T10:31:57.174Z,99353.94
2023-04-02T10:34:44.210Z,99355.72
2023-04-02T10:37:37.077Z,99349.25
2023-04-02T10:40:09.952Z,99355.59
2023-04-02T10:42:40.448Z,99357.38
2023-04-02T10:45:29.567Z,99358.69
2023-04-02T10:48:23.405Z,99342.59
2023-04-02T10:51:26.294Z,99349.28
2023-04-02T10:54:16.460Z,99352.03
2023-04-02T10:56:51.212Z,99349.16
2023-04-02T10:59:33.265Z,99352.66
2023-04-02T11:02:07.821Z,99355.91
2023-04-02T11:04:48.576Z,99347.97
2023-04-02T11:07:24.908Z,99354.56
2023-04-02T11:09:57.055Z,99352.56
2023-04-02T11:12:30.911Z,99350.56
2023-04-02T11:14:58.982Z,99347.56
2023-04-02T11:17:26.947Z,99339.97
2023-04-02T11:19:56.089Z,99340.53
2023-04-02T11:22:29.351Z,99336.44
2023-04-02T11:24:58.620Z,99334.44
2023-04-02T11:27:32.667Z,99331.31
2023-04-02T11:30:25.694Z,99325.44
2023-04-02T11:32:54.342Z,99330.84
2023-04-02T11:35:38.453Z,99328.72
2023-04-02T11:38:12.289Z,99324.09
2023-04-02T11:40:49.401Z,99318.62
2023-04-02T11:43:35.967Z,99327.12
2023-04-02T11:46:06.607Z,99331.59
2023-04-02T11:48:37.002Z,99330.06
2023-04-02T11:51:24.205Z,99327.25
2023-04-02T11:53:54.039Z,99329.97
2023-04-02T11:56:27.639Z,99330.72
2023-04-02T11:59:13.850Z,99328.78
2023-04-02T12:02:09.505Z,99322.78
2023-04-02T12:04:55.768Z,99333.59
2023-04-02T12:07:52.293Z,99323.56
2023-04-02T12:10:50.716Z,99328.66
2023-04-02T12:13:43.264Z,99314.66
2023-04-02T12:16:13.378Z,99324.84
2023-04-02T12:18:53.709Z,99321.28
2023-04-02T12:21:24.969Z,99309.72
2023-04-02T12:23:55.700Z,99302.13
2023-04-02T12:26:32.078Z,99308.84
2023-04-02T12:29:24.923Z,99303.41
2023-04-02T12:31:54.141Z,99305.25
2023-04-02T12:34:24.499Z,99304.91
2023-04-02T12:37:02.403Z,99303.09
2023-04-02T12:39:31.902Z,99298.78
2023-04-02T12:41:59.983Z,99286.84
2023-04-02T12:44:32.806Z,99293.34
2023-04-02T12:47:00.704Z,99282.88
2023-04-02T12:49:44.308Z,99296.28
2023-04-02T12:52:14.952Z,99285.72
2023-04-02T12:55:00.271Z,99280.28
2023-04-02T12:57:28.857Z,99273.28
2023-04-02T13:00:06.442Z,99277.50
2023-04-02T13:02:45.503Z,99296.38
2023-04-02T13:05:13.831Z,99283.25
2023-04-02T13:07:47.751Z,99288.66
2023-04-02T13:10:27.466Z,99282.81
2023-04-02T13:13:05.117Z,99287.34
2023-04-02T13:15:37.142Z,99288.72
2023-04-02T13:18:14.031Z,99292.81
2023-04-02T13:20:43.232Z,99291.78
2023-04-02T13:23:34.500Z,99281.81
2023-04-02T13:26:18.774Z,99287.09
2023-04-02T13:29:27.928Z,99290.50
2023-04-02T13:32:01.839Z,99284.78
2023-04-02T13:34:30.106Z,99295.16
2023-04-02T13:36:58.351Z,99293.09
2023-04-02T13:39:27.125Z,99297.63
2023-04-02T13:42:04.101Z,99299.44
2023-04-02T13:44:34.629Z,99308.25
2023-04-02T13:47:02.681Z,99307.56
2023-04-02T13:49:32.198Z,99298.19
2023-04-02T13:52:05.140Z,99296.91
2023-04-02T13:54:48.981Z,99308.22
2023-04-02T13:57:16.935Z,99302.75
2023-04-02T13:59:44.609Z,99303.03
2023-04-02T14:02:17.733Z,99293.06
2023-04-02T14:05:02.078Z,99291.31
2023-04-02T14:07:59.975Z,99295.72
2023-04-02T14:10:56.880Z,99300.44
2023-04-02T14:13:30.104Z,99302.03
2023-04-02T14:16:32.184Z,99297.63
2023-04-02T14:19:27.728Z,99296.84
2023-04-02T14:22:01.605Z,99299.63
2023-04-02T14:25:07.749Z,99293.66
2023-04-02T14:27:57.777Z,99295.75
2023-04-02T14:30:54.495Z,99311.88
2023-04-02T14:33:56.648Z,99299.09
2023-04-02T14:36:37.073Z,99318.75
2023-04-02T14:39:13.992Z,99318.00
2023-04-02T14:41:57.266Z,99316.47
2023-04-02T14:44:31.607Z,99316.00
2023-04-02T14:47:23.646Z,99331.72
2023-04-02T14:49:57.938Z,99329.19
2023-04-02T14:52:29.358Z,99336.50
2023-04-02T14:55:04.556Z,99329.38
2023-04-02T14:57:33.757Z,99347.44
2023-04-02T15:00:26.182Z,99347.56
2023-04-02T15:02:56.955Z,99343.06
2023-04-02T15:05:34.257Z,99351.53
2023-04-02T15:08:07.447Z,99364.16
2023-04-02T15:10:42.072Z,99367.25
2023-04-02T15:13:19.823Z,99369.66
2023-04-02T15:15:52.503Z,99367.94
2023-04-02T15:18:20.178Z,99374.97
2023-04-02T15:20:50.875Z,99379.50
2023-04-02T15:23:30.438Z,99394.78
2023-04-02T15:26:19.853Z,99419.00
2023-04-02T15:29:02.181Z,99462.53
2023-04-02T15:31:33.889Z,99471.41
2023-04-02T15:34:22.487Z,99474.06
2023-04-02T15:36:56.248Z,99472.38
2023-04-02T15:39:26.885Z,99462.88
2023-04-02T15:42:25.624Z,99457.72
2023-04-02T15:45:08.789Z,99446.88
2023-04-02T15:47:42.939Z,99462.31
2023-04-02T15:50:45.982Z,99446.59
2023-04-02T15:53:24.382Z,99437.91
2023-04-02T15:56:14.246Z,99429.50
2023-04-02T15:59:00.613Z,99430.88
2023-04-02T16:01:43.877Z,99427.94
2023-04-02T16:04:45.155Z,99424.97
2023-04-02T16:07:46.823Z,99423.06
2023-04-02T16:10:40.328Z,99409.25
2023-04-02T16:13:19.444Z,99415.50
2023-04-02T16:16:02.751Z,99416.88
2023-04-02T16:18:55.060Z,99419.06
2023-04-02T16:21:25.290Z,99429.13
2023-04-02T16:23:55.449Z,99419.56
2023-04-02T16:26:41.006Z,99424.47
2023-04-02T16:29:23.990Z,99420.97
2023-04-02T16:32:12.590Z,99423.38
2023-04-02T16:37:52.641Z,99434.78
2023-04-02T16:40:51.672Z,99434.53
2023-04-02T16:43:33.945Z,99431.00
2023-04-02T16:46:01.605Z,99436.44
2023-04-02T16:48:58.656Z,99441.06
2023-04-02T16:51:35.364Z,99452.22
2023-04-02T16:54:30.461Z,99458.16
2023-04-02T16:57:04.141Z,99465.47
2023-04-02T16:59:59.581Z,99471.41
2023-04-02T17:02:27.236Z,99479.25
2023-04-02T17:05:18.193Z,99487.88
2023-04-02T17:07:49.748Z,99491.63
2023-04-02T17:10:17.418Z,99486.91
2023-04-02T17:13:04.557Z,99498.75
2023-04-02T17:15:39.909Z,99500.56
2023-04-02T17:18:26.483Z,99504.28
2023-04-02T17:20:55.001Z,99509.00
2023-04-02T17:23:23.374Z,99522.69
2023-04-02T17:25:55.584Z,99522.00
2023-04-02T17:28:29.597Z,99517.81
2023-04-02T17:31:01.280Z,99521.78
2023-04-02T17:33:29.036Z,99528.22
2023-04-02T17:36:22.285Z,99523.50
2023-04-02T17:39:17.920Z,99528.00
2023-04-02T17:42:14.453Z,99528.22
2023-04-02T17:44:47.950Z,99522.41
2023-04-02T17:47:21.733Z,99526.91
2023-04-02T17:50:11.003Z,99527.63
2023-04-02T17:52:56.057Z,99525.66
2023-04-02T17:55:43.299Z,99522.81
2023-04-02T17:58:28.026Z,99522.22
2023-04-02T18:01:14.034Z,99524.50
2023-04-02T18:03:50.340Z,99527.72
2023-04-02T18:06:28.840Z,99540.19
2023-04-02T18:09:08.895Z,99538.84
2023-04-02T18:11:51.533Z,99547.72
2023-04-02T18:14:37.598Z,99545.28
2023-04-02T18:17:36.150Z,99553.06
2023-04-02T18:20:28.337Z,99565.97
2023-04-02T18:23:11.568Z,99567.16
2023-04-02T18:25:58.853Z,99573.31
2023-04-02T18:28:53.174Z,99580.59
2023-04-02T18:31:59.263Z,99579.53
2023-04-02T18:34:29.848Z,99588.22
2023-04-02T18:37:13.951Z,99596.31
2023-04-02T18:39:44.253Z,99590.66
2023-04-02T18:42:39.502Z,99590.91
2023-04-02T18:45:13.168Z,99596.63
2023-04-02T18:47:46.656Z,99612.06
2023-04-02T18:50:31.102Z,99603.03
2023-04-02T18:52:58.699Z,99612.22
2023-04-02T18:55:30.705Z,99614.03
2023-04-02T18:58:28.079Z,99626.75
2023-04-02T19:00:57.204Z,99622.88
2023-04-02T19:03:33.404Z,99629.13
2023-04-02T19:06:05.548Z,99629.44
2023-04-02T19:08:55.919Z,99631.50
2023-04-02T19:11:28.644Z,99651.25
2023-04-02T19:14:13.234Z,99648.66
2023-04-02T19:16:46.748Z,99652.59
2023-04-02T19:19:23.158Z,99651.47
2023-04-02T19:22:13.699Z,99658.66
2023-04-02T19:24:59.825Z,99649.97
2023-04-02T19:27:27.503Z,99656.44
2023-04-02T19:30:02.425Z,99654.31
2023-04-02T19:32:42.451Z,99671.03
2023-04-02T19:35:24.104Z,99666.09
2023-04-02T19:38:22.666Z,99671.97
2023-04-02T19:41:00.572Z,99678.09
2023-04-02T19:43:29.488Z,99686.44
2023-04-02T19:45:57.511Z,99692.91
2023-04-02T19:48:40.090Z,99689.06
2023-04-02T19:51:07.836Z,99692.59
2023-04-02T19:53:37.724Z,99701.41
2023-04-02T19:56:06.997Z,99701.06
2023-04-02T19:58:36.689Z,99699.44
2023-04-02T20:01:05.089Z,99700.00
2023-04-02T20:03:33.008Z,99708.69
2023-04-02T20:06:01.066Z,99714.44
2023-04-02T20:08:28.925Z,99702.38
2023-04-02T20:10:58.665Z,99716.31
2023-04-02T20:13:26.403Z,99727.13
2023-04-02T20:16:00.145Z,99730.66
2023-04-02T20:18:28.763Z,99736.88
2023-04-02T20:20:56.660Z,99730.88
2023-04-02T20:23:26.484Z,99730.88
2023-04-02T20:25:58.883Z,99739.56
2023-04-02T20:28:27.881Z,99741.44
2023-04-02T20:31:06.278Z,99751.69
2023-04-02T20:33:34.142Z,99746.28
2023-04-02T20:36:05.549Z,99744.53
2023-04-02T20:38:34.937Z,99755.09
2023-04-02T20:41:04.519Z,99745.12
2023-04-02T20:43:32.250Z,99760.84
2023-04-02T20:46:04.259Z,99766.25
2023-04-02T20:48:32.731Z,99774.94
2023-04-02T20:51:02.198Z,99777.16
2023-04-02T20:53:31.100Z,99786.31
2023-04-02T20:56:06.258Z,99784.34
2023-04-02T20:58:35.455Z,99794.41
2023-04-02T21:01:11.986Z,99806.75
2023-04-02T21:03:40.557Z,99807.34
2023-04-02T21:06:28.531Z,99818.28
2023-04-02T21:08:56.324Z,99823.69
2023-04-02T21:11:26.271Z,99819.59
2023-04-02T21:13:54.366Z,99822.16
2023-04-02T21:16:24.777Z,99829.56
2023-04-02T21:18:53.865Z,99828.41
2023-04-02T21:21:23.191Z,99835.31
2023-04-02T21:23:59.323Z,99833.69
2023-04-02T21:26:28.495Z,99840.37
2023-04-02T21:28:58.345Z,99842.69
2023-04-02T21:31:31.200Z,99841.19
2023-04-02T21:33:59.950Z,99854.22
2023-04-02T21:36:36.390Z,99848.94
2023-04-02T21:39:08.943Z,99856.56
2023-04-02T21:41:39.247Z,99853.38
2023-04-02T21:44:13.608Z,99861.50
2023-04-02T21:46:43.098Z,99859.84
2023-04-02T21:49:13.106Z,99861.72
2023-04-02T21:51:42.333Z,99868.66
2023-04-02T21:54:12.542Z,99869.47
2023-04-02T21:56:42.612Z,99870.78
2023-04-02T21:59:14.137Z,99877.59
2023-04-02T22:01:46.061Z,99879.69
2023-04-02T22:04:19.862Z,99883.69
2023-04-02T22:06:48.385Z,99882.28
2023-04-02T22:09:19.032Z,99890.38
2023-04-02T22:11:49.525Z,99885.22
2023-04-02T22:14:17.955Z,99893.56
2023-04-02T22:16:45.801Z,99890.28
2023-04-02T22:19:18.610Z,99888.00
2023-04-02T22:21:47.866Z,99895.53
2023-04-02T22:24:19.088Z,99899.03
2023-04-02T22:26:47.207Z,99897.75
2023-04-02T22:29:16.083Z,99895.75
2023-04-02T22:31:43.962Z,99904.09
2023-04-02T22:34:11.881Z,99902.22
2023-04-02T22:36:39.481Z,99902.91
2023-04-02T22:39:10.435Z,99905.03
2023-04-02T22:41:38.644Z,99908.19
2023-04-02T22:44:06.759Z,99903.25
2023-04-02T22:46:34.870Z,99919.69
2023-04-02T22:49:03.417Z,99921.81
2023-04-02T22:51:32.102Z,99923.91
2023-04-02T22:54:01.966Z,99928.50
2023-04-02T22:56:32.861Z,99925.16
2023-04-02T22:59:00.815Z,99934.31
2023-04-02T23:01:34.431Z,99933.13
2023-04-02T23:04:05.420Z,99935.84
2023-04-02T23:06:33.236Z,99930.22
2023-04-02T23:09:00.861Z,99935.25
2023-04-02T23:11:29.223Z,99947.47
2023-04-02T23:13:58.914Z,99944.41
2023-04-02T23:16:29.295Z,99948.97
2023-04-02T23:18:57.464Z,99951.53
2023-04-02T23:21:27.784Z,99952.38
2023-04-02T23:23:56.828Z,99956.13
2023-04-02T23:26:33.728Z,99954.59
2023-04-02T23:29:02.422Z,99954.34
2023-04-02T23:31:30.211Z,99960.78
2023-04-02T23:33:57.925Z,99955.63
2023-04-02T23:36:28.848Z,99954.19
2023-04-02T23:39:01.298Z,99953.69
2023-04-02T23:41:30.338Z,99951.81
2023-04-02T23:43:59.097Z,99955.31
2023-04-02T23:46:27.077Z,99956.25
2023-04-02T23:48:55.693Z,99961.28
2023-04-02T23:51:24.314Z,99967.12
2023-04-02T23:53:53.568Z,99963.84
2023-04-02T23:56:21.777Z,99964.72
2023-04-02T23:58:50.726Z,99965.75
